createdAt,value
2022-10-16T00:01:34.009Z,13.13
2022-10-16T00:04:01.657Z,13.20
2022-10-16T00:06:29.501Z,13.22
2022-10-16T00:08:56.461Z,13.25
2022-10-16T00:11:24.964Z,13.28
2022-10-16T00:13:55.312Z,13.29
2022-10-16T00:16:23.382Z,13.28
2022-10-16T00:18:49.912Z,13.29
2022-10-16T00:21:18.826Z,13.30
2022-10-16T00:23:45.648Z,13.31
2022-10-16T00:26:14.209Z,13.31
2022-10-16T00:28:40.940Z,13.28
2022-10-16T00:31:09.097Z,13.27
2022-10-16T00:33:38.787Z,13.25
2022-10-16T00:36:07.679Z,13.27
2022-10-16T00:38:34.376Z,13.28
2022-10-16T00:41:01.433Z,13.28
2022-10-16T00:43:39.960Z,13.26
2022-10-16T00:46:14.527Z,13.23
2022-10-16T00:48:46.371Z,13.22
2022-10-16T00:51:12.972Z,13.18
2022-10-16T00:53:39.651Z,13.20
2022-10-16T00:56:06.953Z,13.19
2022-10-16T00:58:33.624Z,13.20
2022-10-16T01:01:00.329Z,13.18
2022-10-16T01:03:29.530Z,13.19
2022-10-16T01:06:10.655Z,13.15
2022-10-16T01:08:47.707Z,13.07
2022-10-16T01:11:23.010Z,12.99
2022-10-16T01:13:54.447Z,12.97
2022-10-16T01:16:29.759Z,12.94
2022-10-16T01:19:02.299Z,12.96
2022-10-16T01:21:35.819Z,12.96
2022-10-16T01:24:10.411Z,13.01
2022-10-16T01:26:50.872Z,13.03
2022-10-16T01:29:26.246Z,13.00
2022-10-16T01:31:57.668Z,13.00
2022-10-16T01:34:33.038Z,13.01
2022-10-16T01:37:05.668Z,12.98
2022-10-16T01:39:36.054Z,12.94
2022-10-16T01:42:09.244Z,12.89
2022-10-16T01:44:39.704Z,12.92
2022-10-16T01:47:08.185Z,12.85
2022-10-16T01:49:37.633Z,12.82
2022-10-16T01:52:08.647Z,12.89
2022-10-16T01:54:38.050Z,12.89
2022-10-16T01:57:06.893Z,12.93
2022-10-16T01:59:36.775Z,12.91
2022-10-16T02:02:09.639Z,12.93
2022-10-16T02:04:39.136Z,12.91
2022-10-16T02:07:06.467Z,12.91
2022-10-16T02:09:34.801Z,12.87
2022-10-16T02:12:07.360Z,12.84
2022-10-16T02:14:33.925Z,12.86
2022-10-16T02:17:00.445Z,12.88
2022-10-16T02:19:28.525Z,12.91
2022-10-16T02:21:57.957Z,12.93
2022-10-16T02:24:31.239Z,12.91
2022-10-16T02:27:06.026Z,12.91
2022-10-16T02:29:35.151Z,12.85
2022-10-16T02:32:05.167Z,12.82
2022-10-16T02:34:33.779Z,12.81
2022-10-16T02:37:02.017Z,12.79
2022-10-16T02:39:29.600Z,12.79
2022-10-16T02:41:56.372Z,12.76
2022-10-16T02:44:22.963Z,12.76
2022-10-16T02:46:49.468Z,12.71
2022-10-16T02:49:16.174Z,12.66
2022-10-16T02:51:44.079Z,12.66
2022-10-16T02:54:10.625Z,12.64
2022-10-16T02:56:37.168Z,12.64
2022-10-16T02:59:03.718Z,12.61
2022-10-16T03:01:30.320Z,12.55
2022-10-16T03:03:56.888Z,12.49
2022-10-16T03:06:24.111Z,12.47
2022-10-16T03:08:52.008Z,12.49
2022-10-16T03:11:18.555Z,12.48
2022-10-16T03:13:45.208Z,12.45
2022-10-16T03:16:11.735Z,12.41
2022-10-16T03:18:38.292Z,12.46
2022-10-16T03:21:04.949Z,12.44
2022-10-16T03:26:04.503Z,12.43
2022-10-16T03:28:31.206Z,12.42
2022-10-16T03:30:57.903Z,12.43
2022-10-16T03:33:24.414Z,12.40
2022-10-16T03:35:54.646Z,12.37
2022-10-16T03:38:21.613Z,12.36
2022-10-16T03:40:48.479Z,12.33
2022-10-16T03:43:16.400Z,12.33
2022-10-16T03:45:43.214Z,12.31
2022-10-16T03:48:09.744Z,12.29
2022-10-16T03:50:36.346Z,12.29
2022-10-16T03:53:04.086Z,12.31
2022-10-16T03:55:30.616Z,12.29
2022-10-16T03:57:57.169Z,12.30
2022-10-16T04:00:25.313Z,12.32
2022-10-16T04:02:51.822Z,12.33
2022-10-16T04:05:18.319Z,12.34
2022-10-16T04:07:44.991Z,12.32
2022-10-16T04:10:11.486Z,12.31
2022-10-16T04:12:38.042Z,12.29
2022-10-16T04:15:04.909Z,12.25
2022-10-16T04:17:32.772Z,12.24
2022-10-16T04:19:59.293Z,12.28
2022-10-16T04:24:57.361Z,12.25
2022-10-16T04:27:24.237Z,12.23
2022-10-16T04:29:50.904Z,12.19
2022-10-16T04:32:17.440Z,12.20
2022-10-16T04:34:45.417Z,12.20
2022-10-16T04:37:11.971Z,12.20
2022-10-16T04:39:38.585Z,12.22
2022-10-16T04:42:05.172Z,12.26
2022-10-16T04:44:31.693Z,12.24
2022-10-16T04:46:58.225Z,12.24
2022-10-16T04:49:24.890Z,12.20
2022-10-16T04:51:52.766Z,12.22
2022-10-16T04:54:19.312Z,12.24
2022-10-16T04:56:45.837Z,12.22
2022-10-16T04:59:12.457Z,12.23
2022-10-16T05:01:38.985Z,12.26
2022-10-16T05:04:05.587Z,12.34
2022-10-16T05:06:32.242Z,12.32
2022-10-16T05:09:00.156Z,12.36
2022-10-16T05:11:26.850Z,12.40
2022-10-16T05:13:55.782Z,12.47
2022-10-16T05:16:22.769Z,12.47
2022-10-16T05:18:53.008Z,12.52
2022-10-16T05:21:19.824Z,12.50
2022-10-16T05:23:46.355Z,12.46
2022-10-16T05:26:14.457Z,12.47
2022-10-16T05:28:41.013Z,12.47
2022-10-16T05:31:08.437Z,12.48
2022-10-16T05:33:35.405Z,12.50
2022-10-16T05:36:02.567Z,12.58
2022-10-16T05:38:29.065Z,12.61
2022-10-16T05:40:55.698Z,12.67
2022-10-16T05:43:23.863Z,12.69
2022-10-16T05:45:57.206Z,12.64
2022-10-16T05:48:23.887Z,12.60
2022-10-16T05:50:57.856Z,12.59
2022-10-16T05:53:24.486Z,12.59
2022-10-16T05:55:53.094Z,12.57
2022-10-16T05:58:19.654Z,12.55
2022-10-16T06:00:54.247Z,12.52
2022-10-16T06:03:20.807Z,12.52
2022-10-16T06:05:47.375Z,12.49
2022-10-16T06:08:13.949Z,12.46
2022-10-16T06:10:40.433Z,12.46
2022-10-16T06:13:06.973Z,12.47
2022-10-16T06:15:33.585Z,12.42
2022-10-16T06:18:01.472Z,12.42
2022-10-16T06:20:28.010Z,12.36
2022-10-16T06:22:54.521Z,12.34
2022-10-16T06:25:21.380Z,12.33
2022-10-16T06:27:47.878Z,12.34
2022-10-16T06:30:14.783Z,12.38
2022-10-16T06:32:41.288Z,12.39
2022-10-16T06:35:09.470Z,12.39
2022-10-16T06:37:35.985Z,12.36
2022-10-16T06:40:02.543Z,12.35
2022-10-16T06:42:29.252Z,12.33
2022-10-16T06:44:56.005Z,12.28
2022-10-16T06:47:22.772Z,12.26
2022-10-16T06:49:53.422Z,12.25
2022-10-16T06:52:22.233Z,12.21
2022-10-16T06:54:48.777Z,12.21
2022-10-16T06:57:15.305Z,12.19
2022-10-16T06:59:46.381Z,12.19
2022-10-16T07:02:13.452Z,12.20
2022-10-16T07:04:39.947Z,12.26
2022-10-16T07:07:08.657Z,12.29
2022-10-16T07:09:37.728Z,12.31
2022-10-16T07:12:04.826Z,12.33
2022-10-16T07:14:31.362Z,12.34
2022-10-16T07:16:57.876Z,12.37
2022-10-16T07:19:24.573Z,12.42
2022-10-16T07:21:51.097Z,12.46
2022-10-16T07:24:18.163Z,12.50
2022-10-16T07:26:47.046Z,12.54
2022-10-16T07:29:16.011Z,12.61
2022-10-16T07:31:43.362Z,12.64
2022-10-16T07:34:10.842Z,12.69
2022-10-16T07:36:37.542Z,12.72
2022-10-16T07:39:04.526Z,12.77
2022-10-16T07:41:31.089Z,12.79
2022-10-16T07:43:59.788Z,12.80
2022-10-16T07:46:27.527Z,12.83
2022-10-16T07:48:54.068Z,12.85
2022-10-16T07:51:22.431Z,12.90
2022-10-16T07:53:49.691Z,12.95
2022-10-16T07:56:17.879Z,12.98
2022-10-16T07:58:44.998Z,12.99
2022-10-16T08:01:14.860Z,13.10
2022-10-16T08:03:42.989Z,13.18
2022-10-16T08:06:09.531Z,13.29
2022-10-16T08:08:36.175Z,13.34
2022-10-16T08:11:02.857Z,13.43
2022-10-16T08:13:29.399Z,13.48
2022-10-16T08:15:55.963Z,13.54
2022-10-16T08:18:23.990Z,13.65
2022-10-16T08:20:56.823Z,13.69
2022-10-16T08:23:23.350Z,13.75
2022-10-16T08:25:49.860Z,13.81
2022-10-16T08:28:16.538Z,13.83
2022-10-16T08:30:43.223Z,13.92
2022-10-16T08:33:09.725Z,13.97
2022-10-16T08:35:37.793Z,14.04
2022-10-16T08:38:04.331Z,14.04
2022-10-16T08:40:32.780Z,14.20
2022-10-16T08:43:22.412Z,14.30
2022-10-16T08:46:11.485Z,14.58
2022-10-16T08:48:45.310Z,14.67
2022-10-16T08:51:19.216Z,14.74
2022-10-16T08:53:52.922Z,14.83
2022-10-16T08:56:19.622Z,15.01
2022-10-16T09:01:21.291Z,15.13
2022-10-16T09:04:30.629Z,15.14
2022-10-16T09:07:06.032Z,15.01
2022-10-16T09:09:54.912Z,15.05
2022-10-16T09:12:28.268Z,15.19
2022-10-16T09:15:03.520Z,15.35
2022-10-16T09:17:38.981Z,15.69
2022-10-16T09:20:18.946Z,15.92
2022-10-16T09:22:47.218Z,15.93
2022-10-16T09:25:15.716Z,15.93
2022-10-16T09:27:45.302Z,16.23
2022-10-16T09:30:14.414Z,16.51
2022-10-16T09:32:42.188Z,16.81
2022-10-16T09:35:14.136Z,17.03
2022-10-16T09:37:42.901Z,17.15
2022-10-16T09:40:25.138Z,17.08
2022-10-16T09:42:57.063Z,17.01
2022-10-16T09:45:24.648Z,17.33
2022-10-16T09:47:54.200Z,17.33
2022-10-16T09:50:26.864Z,16.98
2022-10-16T09:53:04.911Z,16.42
2022-10-16T09:55:32.798Z,16.03
2022-10-16T09:57:59.307Z,16.02
2022-10-16T10:00:26.268Z,15.95
2022-10-16T10:05:25.455Z,16.19
2022-10-16T10:07:57.298Z,17.10
2022-10-16T10:10:25.683Z,17.31
2022-10-16T10:12:54.316Z,17.56
2022-10-16T10:15:20.911Z,17.30
2022-10-16T10:17:49.603Z,17.24
2022-10-16T10:20:28.915Z,16.99
2022-10-16T10:22:56.301Z,17.33
2022-10-16T10:25:50.643Z,17.18
2022-10-16T10:28:40.365Z,16.91
2022-10-16T10:31:14.869Z,16.81
2022-10-16T10:33:47.969Z,16.79
2022-10-16T10:36:29.649Z,17.42
2022-10-16T10:38:59.896Z,17.20
2022-10-16T10:41:56.486Z,17.05
2022-10-16T10:44:49.031Z,16.90
2022-10-16T10:47:27.160Z,16.53
2022-10-16T10:50:02.844Z,16.60
2022-10-16T10:52:52.788Z,16.60
2022-10-16T10:55:29.572Z,16.42
2022-10-16T10:58:13.786Z,16.31
2022-10-16T11:00:54.724Z,16.64
2022-10-16T11:03:35.970Z,17.03
2022-10-16T11:06:08.576Z,17.68
2022-10-16T11:08:39.700Z,18.43
2022-10-16T11:11:11.845Z,19.14
2022-10-16T11:13:44.967Z,19.35
2022-10-16T11:16:21.498Z,19.40
2022-10-16T11:18:54.640Z,19.51
2022-10-16T11:21:26.081Z,19.73
2022-10-16T11:24:01.285Z,19.54
2022-10-16T11:26:33.893Z,19.83
2022-10-16T11:29:05.826Z,19.83
2022-10-16T11:31:39.650Z,20.06
2022-10-16T11:34:12.815Z,20.34
2022-10-16T11:36:45.364Z,20.45
2022-10-16T11:39:27.324Z,20.13
2022-10-16T11:41:56.631Z,20.15
2022-10-16T11:44:38.976Z,20.55
2022-10-16T11:50:19.975Z,20.31
2022-10-16T11:52:54.508Z,20.89
2022-10-16T11:55:24.674Z,21.40
2022-10-16T11:57:54.437Z,21.28
2022-10-16T12:00:24.882Z,21.17
2022-10-16T12:03:01.466Z,20.69
2022-10-16T12:05:36.318Z,20.85
2022-10-16T12:08:10.104Z,21.12
2022-10-16T12:10:36.915Z,21.08
2022-10-16T12:13:04.277Z,21.01
2022-10-16T12:15:58.602Z,21.44
2022-10-16T12:18:24.922Z,21.87
2022-10-16T12:20:56.857Z,21.15
2022-10-16T12:23:23.490Z,21.05
2022-10-16T12:25:55.898Z,20.41
2022-10-16T12:28:27.067Z,20.27
2022-10-16T12:30:55.576Z,20.01
2022-10-16T12:33:26.089Z,20.20
2022-10-16T12:35:53.816Z,19.93
2022-10-16T12:38:22.887Z,20.37
2022-10-16T12:40:58.821Z,20.06
2022-10-16T12:43:37.953Z,20.00
2022-10-16T12:46:21.226Z,20.90
2022-10-16T12:49:05.559Z,21.30
2022-10-16T12:51:36.511Z,21.33
2022-10-16T12:54:04.968Z,21.12
2022-10-16T12:56:47.625Z,21.03
2022-10-16T12:59:27.038Z,21.37
2022-10-16T13:02:09.906Z,21.69
2022-10-16T13:04:50.041Z,21.58
2022-10-16T13:07:31.748Z,21.93
2022-10-16T13:10:09.632Z,22.25
2022-10-16T13:12:55.509Z,22.07
2022-10-16T13:15:50.525Z,21.60
2022-10-16T13:18:23.593Z,21.61
2022-10-16T13:21:08.408Z,21.40
2022-10-16T13:23:43.745Z,21.33
2022-10-16T13:26:22.330Z,21.70
2022-10-16T13:28:49.058Z,21.45
2022-10-16T13:31:20.380Z,21.57
2022-10-16T13:33:50.415Z,21.47
2022-10-16T13:36:22.989Z,21.27
2022-10-16T13:38:49.736Z,21.34
2022-10-16T13:41:18.952Z,21.60
2022-10-16T13:43:47.870Z,21.63
2022-10-16T13:46:16.253Z,21.80
2022-10-16T13:48:43.600Z,21.99
2022-10-16T13:51:14.552Z,21.68
2022-10-16T13:53:43.446Z,21.84
2022-10-16T13:56:13.034Z,22.09
2022-10-16T13:58:40.276Z,22.39
2022-10-16T14:01:17.772Z,22.43
2022-10-16T14:03:45.399Z,22.09
2022-10-16T14:06:15.895Z,21.85
2022-10-16T14:08:47.216Z,21.21
2022-10-16T14:11:13.933Z,21.13
2022-10-16T14:13:46.194Z,21.45
2022-10-16T14:16:19.315Z,21.70
2022-10-16T14:18:47.595Z,21.46
2022-10-16T14:21:16.891Z,21.71
2022-10-16T14:23:44.804Z,21.24
2022-10-16T14:26:20.340Z,21.15
2022-10-16T14:28:48.545Z,21.19
2022-10-16T14:31:27.076Z,21.18
2022-10-16T14:33:54.371Z,20.84
2022-10-16T14:36:21.781Z,21.19
2022-10-16T14:38:57.931Z,21.09
2022-10-16T14:41:24.747Z,21.38
2022-10-16T14:43:53.952Z,21.04
2022-10-16T14:46:22.671Z,20.58
2022-10-16T14:48:51.870Z,20.00
2022-10-16T14:51:19.759Z,19.66
2022-10-16T14:53:46.597Z,19.28
2022-10-16T14:56:19.452Z,19.06
2022-10-16T14:58:46.263Z,18.98
2022-10-16T15:01:12.791Z,18.95
2022-10-16T15:03:39.789Z,18.83
2022-10-16T15:06:11.320Z,18.74
2022-10-16T15:08:37.847Z,18.78
2022-10-16T15:11:04.814Z,18.89
2022-10-16T15:13:32.673Z,19.22
2022-10-16T15:15:59.304Z,19.52
2022-10-16T15:18:25.881Z,20.10
2022-10-16T15:20:52.758Z,20.12
2022-10-16T15:23:21.078Z,19.92
2022-10-16T15:25:49.987Z,19.44
2022-10-16T15:28:17.617Z,19.17
2022-10-16T15:30:46.081Z,18.83
2022-10-16T15:33:15.701Z,18.71
2022-10-16T15:35:42.557Z,18.67
2022-10-16T15:38:12.577Z,18.72
2022-10-16T15:40:39.507Z,18.92
2022-10-16T15:43:06.196Z,18.88
2022-10-16T15:45:32.773Z,18.88
2022-10-16T15:48:00.748Z,18.80
2022-10-16T15:50:27.600Z,18.70
2022-10-16T15:52:54.172Z,18.57
2022-10-16T15:55:20.929Z,18.44
2022-10-16T15:57:47.461Z,18.37
2022-10-16T16:00:17.320Z,18.31
2022-10-16T16:02:44.641Z,18.09
2022-10-16T16:05:12.739Z,17.95
2022-10-16T16:07:39.945Z,17.93
2022-10-16T16:10:08.784Z,17.65
2022-10-16T16:12:35.688Z,17.49
2022-10-16T16:15:05.016Z,17.33
2022-10-16T16:17:33.184Z,17.17
2022-10-16T16:19:59.760Z,17.05
2022-10-16T16:22:28.139Z,17.01
2022-10-16T16:24:55.011Z,16.93
2022-10-16T16:27:21.647Z,16.86
2022-10-16T16:29:48.338Z,16.74
2022-10-16T16:32:14.881Z,16.55
2022-10-16T16:34:41.449Z,16.39
2022-10-16T16:37:08.131Z,16.30
2022-10-16T16:39:36.182Z,16.09
2022-10-16T16:42:02.761Z,15.93
2022-10-16T16:44:29.376Z,15.82
2022-10-16T16:46:55.926Z,15.74
2022-10-16T16:49:22.441Z,15.65
2022-10-16T16:51:49.000Z,15.62
2022-10-16T16:54:15.764Z,15.60
2022-10-16T16:56:43.627Z,15.53
2022-10-16T16:59:13.533Z,15.51
2022-10-16T17:01:40.092Z,15.38
2022-10-16T17:04:07.616Z,15.29
2022-10-16T17:06:34.405Z,15.22
2022-10-16T17:09:02.253Z,15.17
2022-10-16T17:11:29.208Z,15.09
2022-10-16T17:13:58.993Z,14.99
2022-10-16T17:16:27.882Z,14.90
2022-10-16T17:18:54.570Z,14.77
2022-10-16T17:21:21.598Z,14.69
2022-10-16T17:23:48.145Z,14.61
2022-10-16T17:26:18.022Z,14.55
2022-10-16T17:28:44.864Z,14.50
2022-10-16T17:31:14.868Z,14.42
2022-10-16T17:33:42.116Z,14.34
2022-10-16T17:36:09.691Z,14.22
2022-10-16T17:38:36.453Z,14.13
2022-10-16T17:41:11.772Z,14.10
2022-10-16T17:43:38.336Z,14.03
2022-10-16T17:46:05.507Z,13.89
2022-10-16T17:48:37.475Z,13.80
2022-10-16T17:51:04.850Z,13.77
2022-10-16T17:53:31.401Z,13.71
2022-10-16T17:56:03.150Z,13.65
2022-10-16T18:01:01.937Z,13.58
2022-10-16T18:03:28.682Z,13.52
2022-10-16T18:05:56.608Z,13.48
2022-10-16T18:08:26.412Z,13.47
2022-10-16T18:10:55.278Z,13.45
2022-10-16T18:13:22.279Z,13.42
2022-10-16T18:15:59.775Z,13.45
2022-10-16T18:18:28.862Z,13.43
2022-10-16T18:20:58.462Z,13.42
2022-10-16T18:23:25.043Z,13.41
2022-10-16T18:25:51.952Z,13.40
2022-10-16T18:28:18.658Z,13.40
2022-10-16T18:30:45.205Z,13.37
2022-10-16T18:33:11.722Z,13.40
2022-10-16T18:35:38.344Z,13.42
2022-10-16T18:38:06.211Z,13.44
2022-10-16T18:40:36.034Z,13.48
2022-10-16T18:43:02.582Z,13.50
2022-10-16T18:45:29.192Z,13.54
2022-10-16T18:47:55.713Z,13.57
2022-10-16T18:50:22.741Z,13.62
2022-10-16T18:52:49.638Z,13.63
2022-10-16T18:55:18.919Z,13.65
2022-10-16T18:57:45.557Z,13.67
2022-10-16T19:00:12.860Z,13.67
2022-10-16T19:02:39.459Z,13.69
2022-10-16T19:05:08.139Z,13.70
2022-10-16T19:07:35.478Z,13.71
2022-10-16T19:10:02.024Z,13.71
2022-10-16T19:12:30.066Z,13.73
2022-10-16T19:14:56.777Z,13.73
2022-10-16T19:17:23.277Z,13.75
2022-10-16T19:19:49.818Z,13.76
2022-10-16T19:22:16.339Z,13.76
2022-10-16T19:24:44.229Z,13.77
2022-10-16T19:27:10.869Z,13.73
2022-10-16T19:29:38.856Z,13.73
2022-10-16T19:32:07.479Z,13.74
2022-10-16T19:34:34.359Z,13.72
2022-10-16T19:37:00.982Z,13.70
2022-10-16T19:39:27.600Z,13.67
2022-10-16T19:41:54.208Z,13.67
2022-10-16T19:44:20.744Z,13.67
2022-10-16T19:46:48.875Z,13.65
2022-10-16T19:49:18.159Z,13.59
2022-10-16T19:51:47.220Z,13.53
2022-10-16T19:54:14.560Z,13.48
2022-10-16T19:56:41.918Z,13.39
2022-10-16T19:59:10.922Z,13.30
2022-10-16T20:01:37.538Z,13.20
2022-10-16T20:04:05.811Z,13.15
2022-10-16T20:06:32.355Z,13.10
2022-10-16T20:08:59.844Z,13.04
2022-10-16T20:11:29.001Z,13.01
2022-10-16T20:13:56.663Z,13.00
2022-10-16T20:16:24.001Z,12.98
2022-10-16T20:18:51.859Z,12.94
2022-10-16T20:21:21.250Z,12.87
2022-10-16T20:23:47.912Z,12.80
2022-10-16T20:26:14.949Z,12.78
2022-10-16T20:28:43.152Z,12.73
2022-10-16T20:31:13.212Z,12.70
2022-10-16T20:33:39.718Z,12.67
2022-10-16T20:36:10.852Z,12.68
2022-10-16T20:38:38.880Z,12.65
2022-10-16T20:41:06.097Z,12.64
2022-10-16T20:43:32.591Z,12.63
2022-10-16T20:46:00.936Z,12.61
2022-10-16T20:48:27.557Z,12.62
2022-10-16T20:50:54.231Z,12.65
2022-10-16T20:53:20.743Z,12.71
2022-10-16T20:55:48.681Z,12.73
2022-10-16T20:58:15.184Z,12.74
2022-10-16T21:00:41.704Z,12.71
2022-10-16T21:03:09.432Z,12.72
2022-10-16T21:05:40.543Z,12.72
2022-10-16T21:08:07.084Z,12.73
2022-10-16T21:10:33.841Z,12.72
2022-10-16T21:13:01.824Z,12.72
2022-10-16T21:15:28.327Z,12.71
2022-10-16T21:17:54.881Z,12.70
2022-10-16T21:20:21.405Z,12.68
2022-10-16T21:22:47.927Z,12.62
2022-10-16T21:25:14.630Z,12.59
2022-10-16T21:27:41.241Z,12.55
2022-10-16T21:30:10.327Z,12.51
2022-10-16T21:32:37.696Z,12.48
2022-10-16T21:35:05.558Z,12.45
2022-10-16T21:37:32.850Z,12.44
2022-10-16T21:39:59.599Z,12.44
2022-10-16T21:42:26.448Z,12.45
2022-10-16T21:44:53.217Z,12.41
2022-10-16T21:47:21.076Z,12.39
2022-10-16T21:49:47.581Z,12.39
2022-10-16T21:52:14.128Z,12.41
2022-10-16T21:54:40.908Z,12.42
2022-10-16T21:57:07.504Z,12.39
2022-10-16T21:59:34.158Z,12.38
2022-10-16T22:02:00.692Z,12.39
2022-10-16T22:04:28.637Z,12.39
2022-10-16T22:06:55.206Z,12.35
2022-10-16T22:09:21.695Z,12.32
2022-10-16T22:11:48.232Z,12.30
2022-10-16T22:14:16.822Z,12.26
2022-10-16T22:16:44.308Z,12.25
2022-10-16T22:19:11.983Z,12.24
2022-10-16T22:21:42.219Z,12.31
2022-10-16T22:24:09.256Z,12.27
2022-10-16T22:26:36.657Z,12.28
2022-10-16T22:29:04.408Z,12.24
2022-10-16T22:31:31.192Z,12.22
2022-10-16T22:33:59.448Z,12.20
2022-10-16T22:36:26.653Z,12.18
2022-10-16T22:38:54.664Z,12.27
2022-10-16T22:41:21.569Z,12.19
2022-10-16T22:43:49.037Z,12.03
2022-10-16T22:46:17.930Z,11.91
2022-10-16T22:48:44.913Z,11.82
2022-10-16T22:51:16.543Z,11.72
2022-10-16T22:53:45.214Z,11.63
2022-10-16T22:56:14.084Z,11.49
2022-10-16T22:58:40.886Z,11.41
2022-10-16T23:01:12.561Z,11.38
2022-10-16T23:03:39.078Z,11.35
2022-10-16T23:06:05.982Z,11.30
2022-10-16T23:08:32.619Z,11.20
2022-10-16T23:10:59.187Z,11.20
2022-10-16T23:13:27.109Z,11.15
2022-10-16T23:15:53.643Z,11.12
2022-10-16T23:18:20.117Z,11.07
2022-10-16T23:20:46.628Z,11.09
2022-10-16T23:23:13.121Z,11.07
2022-10-16T23:25:45.848Z,11.03
2022-10-16T23:28:12.509Z,10.97
2022-10-16T23:30:40.589Z,10.96
2022-10-16T23:33:07.119Z,10.90
2022-10-16T23:35:33.617Z,10.88
2022-10-16T23:38:00.262Z,10.84
2022-10-16T23:40:27.264Z,10.81
2022-10-16T23:42:53.773Z,10.78
2022-10-16T23:45:20.267Z,10.78
2022-10-16T23:47:48.124Z,10.76
2022-10-16T23:50:14.728Z,10.71
2022-10-16T23:52:41.370Z,10.70
2022-10-16T23:55:09.036Z,10.68
2022-10-16T23:57:35.531Z,10.65
